Waverly Hall, Georgia
Current Conditions -  °F | °C
As of 3:51 AM on Wednesday 26 Nov 2014 (Local Time) from KCSG Reporting Station
Broken Clouds Broken Clouds  
Wind Chill: 44°   Ceiling: 11000
Heat Index: 47°   Visibility: 10mi
Dew Point: 42°   Wind: 7mph
Humidity: 83%   Direction: 310°NW
Pressure: 30.02"   Gusts: NA
Location:  32.68°N, 84.74°W
Report Text: KCSG 260851Z AUTO 31006KT 10SM SCT090 BKN110 08/06 A3002 RMK AO2 SLP165 60001 T00830056 56004
Loading
Personal Weather Stations






























Interactive Weather Map New forecast layout! Learn more

10-Day Weather Forecast

Advertisements
Track Severe Weather on mobile